Latest Weather Observations for Cape Ferguson

IDQ60801

Issued at 6:02 pm EST Monday 25 September 2017 (issued every 30 minutes, with the page automatically refreshed every 10 minutes)

About weather observations | Map of weather stations | Latest weather observations for QLD | Other Formats
Station Details ID: 032182 Name: CAPE FERGUSON NTC AWS Lat: -19.28 Lon: 147.06 Height: 0.0 m
Data from the previous 72 hours. | See also: Recent months for locations in Queensland
Date/Time
EST
Temp
°C
App
Temp
°C
Dew
Point
°C
Rel
Hum
%
Delta-T
°C
Wind Press
QNH
hPa
Press
MSL
hPa
Rain since
9am
mm
Dir  Spd
km/h
Gust
km/h
Spd
kts
Gust
kts
25/06:00pm 24.1 - - - - NE 6 9 3 5 1013.6 1013.6 -
25/05:30pm 24.4 - - - - NE 9 19 5 10 1013.3 1013.3 -
25/05:00pm 24.7 - - - - ENE 6 19 3 10 1013.1 1013.1 -
25/04:30pm 24.7 - - - - ENE 11 20 6 11 1013.0 1013.0 -
25/04:00pm 24.9 - - - - ENE 11 19 6 10 1013.0 1013.0 -
25/03:30pm 25.0 - - - - ENE 13 20 7 11 1013.2 1013.2 -
25/03:00pm 24.8 - - - - ENE 11 20 6 11 1013.3 1013.3 -
25/02:30pm 24.3 - - - - ENE 13 17 7 9 1013.6 1013.6 -
25/02:00pm 24.4 - - - - ENE 11 17 6 9 1014.0 1014.0 -
25/01:30pm 24.4 - - - - ENE 11 19 6 10 1014.3 1014.3 -
25/01:00pm 24.2 - - - - ENE 11 17 6 9 1014.7 1014.7 -
25/12:30pm 24.5 - - - - ENE 15 19 8 10 1015.1 1015.1 -
25/12:00pm 24.0 - - - - ENE 11 17 6 9 1015.6 1015.6 -
25/11:30am 24.1 - - - - ENE 13 17 7 9 1016.0 1016.0 -
25/11:00am 24.0 - - - - ENE 11 17 6 9 1016.5 1016.5 -
25/10:30am 24.4 - - - - ENE 11 19 6 10 1016.8 1016.8 -
25/10:00am 24.0 - - - - ENE 15 20 8 11 1017.1 1017.1 -
25/09:30am 23.9 - - - - ENE 13 17 7 9 1017.2 1017.2 -
25/09:00am 23.5 - - - - ESE 7 11 4 6 1017.2 1017.2 -
25/08:30am 22.8 - - - - SSE 2 6 1 3 1017.1 1017.1 -
25/08:00am 22.3 - - - - WSW 2 4 1 2 1016.8 1016.8 -
25/07:30am 21.7 - - - - W 4 6 2 3 1016.4 1016.4 -
25/07:00am 21.1 - - - - W 4 6 2 3 1016.1 1016.1 -
25/06:30am 20.8 - - - - NW 4 6 2 3 1015.8 1015.8 -
25/06:00am 19.9 - - - - NW 6 7 3 4 1015.5 1015.5 -
25/05:30am 20.3 - - - - WNW 4 6 2 3 1015.2 1015.2 -
25/05:00am 20.3 - - - - NW 4 6 2 3 1015.0 1015.0 -
25/04:30am 20.8 - - - - WNW 4 6 2 3 1014.8 1014.8 -
25/04:00am 20.4 - - - - NW 6 7 3 4 1014.5 1014.5 -
25/03:30am 20.2 - - - - WNW 4 6 2 3 1014.4 1014.4 -
25/03:00am 20.6 - - - - W 4 6 2 3 1014.3 1014.3 -
25/02:30am 20.4 - - - - WNW 6 7 3 4 1014.3 1014.3 -
25/02:00am 20.9 - - - - WNW 2 6 1 3 1014.4 1014.4 -
25/01:30am 20.4 - - - - WNW 6 7 3 4 1014.6 1014.6 -
25/01:00am 21.2 - - - - W 2 6 1 3 1015.0 1015.0 -
25/12:30am 20.9 - - - - NW 2 4 1 2 1015.1 1015.1 -
25/12:00am 21.0 - - - - WNW 4 6 2 3 1015.1 1015.1 -
 
Date/Time
EST
Temp
°C
App
Temp
°C
Dew
Point
°C
Rel
Hum
%
Delta-T
°C
Wind Press
QNH
hPa
Press
MSL
hPa
Rain since
9am
mm
Dir  Spd
km/h
Gust
km/h
Spd
kts
Gust
kts
24/11:30pm 21.3 - - - - WNW 4 6 2 3 1015.3 1015.3 -
24/11:00pm 22.6 - - - - N 2 7 1 4 1015.3 1015.3 -
24/10:30pm 22.6 - - - - NNW 2 4 1 2 1015.3 1015.3 -
24/10:00pm 21.8 - - - - WNW 4 7 2 4 1015.3 1015.3 -
24/09:30pm 23.0 - - - - NNW 4 9 2 5 1015.3 1015.3 -
24/09:00pm 23.1 - - - - N 4 7 2 4 1015.3 1015.3 -
24/08:30pm 23.6 - - - - NE 6 11 3 6 1015.0 1015.0 -
24/08:00pm 23.5 - - - - ENE 6 13 3 7 1014.7 1014.7 -
24/07:30pm 23.7 - - - - NE 6 13 3 7 1014.4 1014.4 -
24/07:00pm 23.9 - - - - ENE 7 13 4 7 1014.2 1014.2 -
24/06:30pm 24.0 - - - - ENE 7 15 4 8 1014.0 1014.0 -
24/06:00pm 24.1 - - - - ENE 6 13 3 7 1013.8 1013.8 -
24/05:30pm 24.3 - - - - NE 9 19 5 10 1013.8 1013.8 -
24/05:00pm 24.4 - - - - ENE 11 20 6 11 1013.7 1013.7 -
24/04:30pm 24.4 - - - - ENE 11 20 6 11 1013.5 1013.5 -
24/04:00pm 24.1 - - - - ENE 11 19 6 10 1013.6 1013.6 -
24/03:30pm 24.2 - - - - ENE 11 22 6 12 1013.7 1013.7 -
24/03:00pm 24.5 - - - - ENE 13 19 7 10 1013.9 1013.9 -
24/02:30pm 24.4 - - - - ENE 13 19 7 10 1014.2 1014.2 -
24/02:00pm 24.3 - - - - ENE 13 19 7 10 1014.5 1014.5 -
24/01:30pm 24.2 - - - - ENE 13 17 7 9 1014.8 1014.8 -
24/01:00pm 24.2 - - - - ENE 13 17 7 9 1015.2 1015.2 -
24/12:30pm 24.2 - - - - ENE 13 17 7 9 1015.6 1015.6 -
24/12:00pm 24.2 - - - - ENE 13 17 7 9 1016.1 1016.1 -
24/11:30am 24.2 - - - - ENE 15 20 8 11 1016.6 1016.6 -
24/11:00am 24.2 - - - - ENE 15 20 8 11 1017.0 1017.0 -
24/10:30am 24.3 - - - - ENE 15 19 8 10 1017.3 1017.3 -
24/10:00am 24.1 - - - - ENE 15 20 8 11 1017.2 1017.2 -
24/09:30am 23.7 - - - - E 9 13 5 7 1017.2 1017.2 -
24/09:00am 23.4 - - - - ESE 11 15 6 8 1017.3 1017.3 -
24/08:30am 23.2 - - - - ESE 11 15 6 8 1017.3 1017.3 -
24/08:00am 23.1 - - - - SE 13 15 7 8 1017.0 1017.0 -
24/07:30am 22.3 - - - - WNW 4 7 2 4 1016.7 1016.7 -
24/07:00am 21.7 - - - - W 6 7 3 4 1016.4 1016.4 -
24/06:30am 21.7 - - - - WNW 6 9 3 5 1016.2 1016.2 -
24/06:00am 21.4 - - - - WNW 6 9 3 5 1015.9 1015.9 -
24/05:30am 21.6 - - - - WNW 4 7 2 4 1015.7 1015.7 -
24/05:00am 21.3 - - - - WNW 9 11 5 6 1015.5 1015.5 -
24/04:30am 22.2 - - - - NNE 9 15 5 8 1015.2 1015.2 -
24/04:00am 23.6 - - - - ENE 9 13 5 7 1015.1 1015.1 -
24/03:30am 23.8 - - - - E 11 17 6 9 1015.0 1015.0 -
24/03:00am 23.8 - - - - ENE 11 19 6 10 1015.1 1015.1 -
24/02:30am 23.8 - - - - ENE 11 15 6 8 1015.0 1015.0 -
24/02:00am 23.9 - - - - ENE 13 17 7 9 1015.4 1015.4 -
24/01:30am 23.7 - - - - ENE 6 13 3 7 1015.5 1015.5 -
24/01:00am 23.9 - - - - ENE 15 19 8 10 1015.9 1015.9 -
24/12:30am 23.8 - - - - ENE 11 19 6 10 1015.9 1015.9 -
24/12:00am 23.9 - - - - ENE 11 19 6 10 1016.2 1016.2 -
 
Date/Time
EST
Temp
°C
App
Temp
°C
Dew
Point
°C
Rel
Hum
%
Delta-T
°C
Wind Press
QNH
hPa
Press
MSL
hPa
Rain since
9am
mm
Dir  Spd
km/h
Gust
km/h
Spd
kts
Gust
kts
23/11:30pm 23.3 - - - - NW 4 6 2 3 1016.2 1016.2 -
23/11:00pm 23.9 - - - - NE 9 15 5 8 1016.4 1016.4 -
23/10:30pm 24.0 - - - - ENE 15 19 8 10 1016.5 1016.5 -
23/10:00pm 24.0 - - - - ENE 11 17 6 9 1016.6 1016.6 -
23/09:30pm 24.1 - - - - NE 6 13 3 7 1016.5 1016.5 -
23/09:00pm 24.1 - - - - ENE 13 20 7 11 1016.5 1016.5 -
23/08:30pm 24.3 - - - - ENE 17 20 9 11 1016.4 1016.4 -
23/08:00pm 24.4 - - - - ENE 6 9 3 5 1016.0 1016.0 -
23/07:30pm 24.2 - - - - ENE 6 11 3 6 1015.7 1015.7 -
23/07:00pm 24.3 - - - - ENE 13 19 7 10 1015.6 1015.6 -
23/06:30pm 24.2 - - - - ENE 11 20 6 11 1015.3 1015.3 -
23/06:00pm 24.2 - - - - ENE 17 20 9 11 1015.2 1015.2 -
23/05:30pm 24.5 - - - - ENE 11 20 6 11 1015.0 1015.0 -
23/05:00pm 24.3 - - - - ENE 19 24 10 13 1014.9 1014.9 -
23/04:30pm 24.5 - - - - ENE 13 17 7 9 1014.8 1014.8 -
23/04:00pm 24.4 - - - - ENE 15 22 8 12 1014.9 1014.9 -
23/03:30pm 24.5 - - - - ENE 15 20 8 11 1015.0 1015.0 -
23/03:00pm 24.3 - - - - ENE 20 26 11 14 1015.1 1015.1 -
23/02:30pm 24.3 - - - - ENE 19 20 10 11 1015.2 1015.2 -
23/02:00pm 24.2 - - - - ENE 15 20 8 11 1015.4 1015.4 -
23/01:30pm 24.1 - - - - ENE 17 22 9 12 1015.8 1015.8 -
23/01:00pm 24.1 - - - - ENE 17 20 9 11 1016.1 1016.1 -
23/12:30pm 24.1 - - - - ENE 13 17 7 9 1016.5 1016.5 -
23/12:00pm 24.2 - - - - E 11 15 6 8 1016.9 1016.9 -
23/11:30am 24.2 - - - - ENE 13 17 7 9 1017.4 1017.4 -
23/11:00am 24.2 - - - - ENE 13 17 7 9 1017.9 1017.9 -
23/10:30am 24.2 - - - - ENE 13 17 7 9 1018.1 1018.1 -
23/10:00am 24.4 - - - - ENE 11 15 6 8 1018.2 1018.2 -
23/09:30am 24.3 - - - - ENE 13 19 7 10 1018.4 1018.4 -
23/09:00am 24.2 - - - - ENE 13 17 7 9 1018.3 1018.3 -
23/08:30am 24.1 - - - - ENE 13 17 7 9 1018.2 1018.2 -
23/08:00am 24.1 - - - - ENE 13 17 7 9 1017.9 1017.9 -
23/07:30am 24.0 - - - - ENE 11 15 6 8 1017.5 1017.5 -
23/07:00am 23.8 - - - - ENE 13 17 7 9 1017.1 1017.1 -
23/06:30am 23.9 - - - - ENE 9 17 5 9 1016.7 1016.7 -
23/06:00am 23.5 - - - - ENE 6 11 3 6 1016.4 1016.4 -
23/05:30am 23.5 - - - - ENE 6 17 3 9 1016.1 1016.1 -
23/05:00am 23.6 - - - - ENE 7 15 4 8 1015.9 1015.9 -
23/04:30am 23.7 - - - - ENE 11 17 6 9 1015.7 1015.7 -
23/04:00am 23.6 - - - - ENE 13 20 7 11 1015.3 1015.3 -
23/03:30am 23.8 - - - - ENE 11 15 6 8 1015.3 1015.3 -
23/03:00am 23.8 - - - - ENE 7 15 4 8 1015.4 1015.4 -
23/02:30am 23.8 - - - - ENE 6 17 3 9 1015.8 1015.8 -
23/02:00am 23.9 - - - - ENE 4 13 2 7 1015.9 1015.9 -
23/01:30am 23.9 - - - - ENE 7 15 4 8 1016.4 1016.4 -
23/01:00am 23.9 - - - - ENE 9 19 5 10 1016.5 1016.5 -
23/12:30am 24.0 - - - - ENE 9 15 5 8 1016.7 1016.7 -
23/12:00am 24.1 - - - - ENE 15 22 8 12 1017.0 1017.0 -
 
Date/Time
EST
Temp
°C
App
Temp
°C
Dew
Point
°C
Rel
Hum
%
Delta-T
°C
Wind Press
QNH
hPa
Press
MSL
hPa
Rain since
9am
mm
Dir  Spd
km/h
Gust
km/h
Spd
kts
Gust
kts
22/11:30pm 24.2 - - - - ENE 15 24 8 13 1017.3 1017.3 -
22/11:00pm 24.2 - - - - ENE 11 22 6 12 1017.5 1017.5 -
22/10:30pm 24.3 - - - - ENE 11 20 6 11 1017.5 1017.5 -
22/10:00pm 24.4 - - - - ENE 15 20 8 11 1017.4 1017.4 -
22/09:30pm 24.4 - - - - ENE 13 20 7 11 1017.2 1017.2 -
22/09:00pm 24.4 - - - - ENE 19 22 10 12 1017.0 1017.0 -
22/08:30pm 24.4 - - - - ENE 13 20 7 11 1016.9 1016.9 -
22/08:00pm 24.4 - - - - ENE 19 22 10 12 1016.6 1016.6 -
22/07:30pm 24.4 - - - - ENE 17 20 9 11 1016.4 1016.4 -
22/07:00pm 24.4 - - - - ENE 15 20 8 11 1016.1 1016.1 -
22/06:30pm 24.5 - - - - ENE 13 20 7 11 1015.8 1015.8 -

Other Formats:

Comma delimited format used in spreadsheet applications
http://www.bom.gov.au/fwo/IDQ60801/IDQ60801.94297.axf

JavaScript Object Notation format (JSON) in row-major order
http://www.bom.gov.au/fwo/IDQ60801/IDQ60801.94297.json